Reform, Mississippi
Current Conditions -  °F | °C
As of 10:55 PM on Sunday 21 Dec 2014 (Local Time) from KSTF Reporting Station
Haze Haze  
Wind Chill: 43°   Ceiling: 300
Heat Index: 46°   Visibility: 2mi
Dew Point: 46°   Wind: 7mph
Humidity: 100%   Direction: 150°SSE
Pressure: 29.99"   Gusts: NA
Location:  33.3679°N, 89.2097°W
Report Text: KSTF 220455Z AUTO 15006KT 2SM BR OVC003 08/08 A2999 RMK AO2
Loading
Personal Weather Stations






























Interactive Weather Map New forecast layout! Learn more

10-Day Weather Forecast

Advertisements
Track Severe Weather on mobile